sensor_id;sensor_type;location;lat;lon;timestamp;P1;durP1;ratioP1;P2;durP2;ratioP2
14698;SDS011;7439;50.804;4.602;2022-10-31T00:02:11;29.40;;;24.53;;
14698;SDS011;7439;50.804;4.602;2022-10-31T00:04:38;33.23;;;26.27;;
14698;SDS011;7439;50.804;4.602;2022-10-31T00:07:05;32.90;;;25.50;;
14698;SDS011;7439;50.804;4.602;2022-10-31T00:09:33;30.47;;;26.47;;
14698;SDS011;7439;50.804;4.602;2022-10-31T00:12:00;33.47;;;26.63;;
14698;SDS011;7439;50.804;4.602;2022-10-31T00:14:28;29.87;;;26.43;;
14698;SDS011;7439;50.804;4.602;2022-10-31T00:16:55;28.27;;;25.33;;
14698;SDS011;7439;50.804;4.602;2022-10-31T00:19:22;34.13;;;25.67;;
14698;SDS011;7439;50.804;4.602;2022-10-31T00:21:51;33.27;;;26.07;;
14698;SDS011;7439;50.804;4.602;2022-10-31T00:24:18;31.97;;;25.13;;
14698;SDS011;7439;50.804;4.602;2022-10-31T00:26:46;27.90;;;24.97;;
14698;SDS011;7439;50.804;4.602;2022-10-31T00:29:14;30.67;;;25.73;;
14698;SDS011;7439;50.804;4.602;2022-10-31T00:31:41;33.40;;;25.90;;
14698;SDS011;7439;50.804;4.602;2022-10-31T00:34:08;31.97;;;25.63;;
14698;SDS011;7439;50.804;4.602;2022-10-31T00:36:35;35.03;;;26.57;;
14698;SDS011;7439;50.804;4.602;2022-10-31T00:39:02;31.70;;;25.37;;
14698;SDS011;7439;50.804;4.602;2022-10-31T00:41:29;32.60;;;26.00;;
14698;SDS011;7439;50.804;4.602;2022-10-31T00:43:58;34.93;;;25.63;;
14698;SDS011;7439;50.804;4.602;2022-10-31T00:46:25;34.17;;;26.07;;
14698;SDS011;7439;50.804;4.602;2022-10-31T00:48:52;29.90;;;26.03;;
14698;SDS011;7439;50.804;4.602;2022-10-31T00:51:19;29.83;;;26.63;;
14698;SDS011;7439;50.804;4.602;2022-10-31T00:53:47;31.47;;;26.10;;
14698;SDS011;7439;50.804;4.602;2022-10-31T00:56:14;34.47;;;24.93;;
14698;SDS011;7439;50.804;4.602;2022-10-31T00:58:41;27.60;;;23.93;;
14698;SDS011;7439;50.804;4.602;2022-10-31T01:01:09;35.13;;;25.90;;
14698;SDS011;7439;50.804;4.602;2022-10-31T01:03:36;29.17;;;25.10;;
14698;SDS011;7439;50.804;4.602;2022-10-31T01:06:05;27.70;;;24.53;;
14698;SDS011;7439;50.804;4.602;2022-10-31T01:08:34;29.77;;;25.03;;
14698;SDS011;7439;50.804;4.602;2022-10-31T01:11:03;28.37;;;23.77;;
14698;SDS011;7439;50.804;4.602;2022-10-31T01:13:32;27.17;;;23.90;;
14698;SDS011;7439;50.804;4.602;2022-10-31T01:16:00;25.70;;;22.83;;
14698;SDS011;7439;50.804;4.602;2022-10-31T01:18:30;26.37;;;23.33;;
14698;SDS011;7439;50.804;4.602;2022-10-31T01:20:58;34.10;;;24.60;;
14698;SDS011;7439;50.804;4.602;2022-10-31T01:23:30;27.23;;;24.03;;
14698;SDS011;7439;50.804;4.602;2022-10-31T01:26:01;30.33;;;24.30;;
14698;SDS011;7439;50.804;4.602;2022-10-31T01:28:30;27.27;;;23.43;;
14698;SDS011;7439;50.804;4.602;2022-10-31T01:30:59;30.57;;;25.33;;
14698;SDS011;7439;50.804;4.602;2022-10-31T01:33:27;28.67;;;23.97;;
14698;SDS011;7439;50.804;4.602;2022-10-31T01:35:56;33.10;;;24.27;;
14698;SDS011;7439;50.804;4.602;2022-10-31T01:38:23;26.53;;;22.67;;
14698;SDS011;7439;50.804;4.602;2022-10-31T01:40:51;27.37;;;23.80;;
14698;SDS011;7439;50.804;4.602;2022-10-31T01:43:18;27.00;;;24.03;;
14698;SDS011;7439;50.804;4.602;2022-10-31T01:45:46;25.90;;;22.13;;
14698;SDS011;7439;50.804;4.602;2022-10-31T01:48:19;25.47;;;22.70;;
14698;SDS011;7439;50.804;4.602;2022-10-31T01:50:52;24.63;;;21.83;;
14698;SDS011;7439;50.804;4.602;2022-10-31T01:53:21;26.43;;;23.37;;
14698;SDS011;7439;50.804;4.602;2022-10-31T01:55:49;26.60;;;23.83;;
14698;SDS011;7439;50.804;4.602;2022-10-31T01:58:18;28.20;;;25.20;;
14698;SDS011;7439;50.804;4.602;2022-10-31T02:00:49;25.63;;;22.93;;
14698;SDS011;7439;50.804;4.602;2022-10-31T02:03:20;28.30;;;22.00;;
14698;SDS011;7439;50.804;4.602;2022-10-31T02:05:49;27.87;;;22.80;;
14698;SDS011;7439;50.804;4.602;2022-10-31T02:08:20;28.27;;;20.90;;
14698;SDS011;7439;50.804;4.602;2022-10-31T02:10:51;25.50;;;23.10;;
14698;SDS011;7439;50.804;4.602;2022-10-31T02:13:18;26.70;;;21.50;;
14698;SDS011;7439;50.804;4.602;2022-10-31T02:15:51;26.37;;;22.83;;
14698;SDS011;7439;50.804;4.602;2022-10-31T02:18:19;26.30;;;22.20;;
14698;SDS011;7439;50.804;4.602;2022-10-31T02:20:50;25.37;;;22.57;;
14698;SDS011;7439;50.804;4.602;2022-10-31T02:23:41;28.93;;;22.77;;
14698;SDS011;7439;50.804;4.602;2022-10-31T02:29:41;24.43;;;20.00;;
14698;SDS011;7439;50.804;4.602;2022-10-31T02:32:52;24.97;;;20.10;;
14698;SDS011;7439;50.804;4.602;2022-10-31T02:35:37;23.67;;;21.17;;
14698;SDS011;7439;50.804;4.602;2022-10-31T02:38:13;32.23;;;21.70;;
14698;SDS011;7439;50.804;4.602;2022-10-31T02:40:48;29.43;;;22.37;;
14698;SDS011;7439;50.804;4.602;2022-10-31T02:43:20;26.27;;;20.53;;
14698;SDS011;7439;50.804;4.602;2022-10-31T02:45:53;25.13;;;21.50;;
14698;SDS011;7439;50.804;4.602;2022-10-31T02:48:26;27.37;;;22.13;;
14698;SDS011;7439;50.804;4.602;2022-10-31T02:50:55;23.53;;;20.63;;
14698;SDS011;7439;50.804;4.602;2022-10-31T02:53:26;26.17;;;20.73;;
14698;SDS011;7439;50.804;4.602;2022-10-31T02:55:58;25.90;;;20.83;;
14698;SDS011;7439;50.804;4.602;2022-10-31T02:58:28;23.23;;;20.77;;
14698;SDS011;7439;50.804;4.602;2022-10-31T03:07:08;25.97;;;20.90;;
14698;SDS011;7439;50.804;4.602;2022-10-31T03:09:44;27.07;;;21.47;;
14698;SDS011;7439;50.804;4.602;2022-10-31T03:12:22;28.57;;;20.93;;
14698;SDS011;7439;50.804;4.602;2022-10-31T03:14:56;27.70;;;21.33;;
14698;SDS011;7439;50.804;4.602;2022-10-31T03:17:32;28.63;;;20.43;;
14698;SDS011;7439;50.804;4.602;2022-10-31T03:20:05;25.67;;;20.50;;
14698;SDS011;7439;50.804;4.602;2022-10-31T03:22:35;23.67;;;20.97;;
14698;SDS011;7439;50.804;4.602;2022-10-31T03:25:06;27.80;;;20.70;;
14698;SDS011;7439;50.804;4.602;2022-10-31T03:27:34;28.23;;;20.30;;
14698;SDS011;7439;50.804;4.602;2022-10-31T03:30:04;25.23;;;20.53;;
14698;SDS011;7439;50.804;4.602;2022-10-31T03:32:34;25.57;;;20.93;;
14698;SDS011;7439;50.804;4.602;2022-10-31T03:35:06;25.80;;;21.50;;
14698;SDS011;7439;50.804;4.602;2022-10-31T03:37:36;24.60;;;18.73;;
14698;SDS011;7439;50.804;4.602;2022-10-31T03:40:05;29.30;;;20.37;;
14698;SDS011;7439;50.804;4.602;2022-10-31T03:42:37;23.63;;;20.30;;
14698;SDS011;7439;50.804;4.602;2022-10-31T03:45:08;21.23;;;19.03;;
14698;SDS011;7439;50.804;4.602;2022-10-31T03:47:39;29.03;;;19.87;;
14698;SDS011;7439;50.804;4.602;2022-10-31T03:50:09;31.63;;;20.77;;
14698;SDS011;7439;50.804;4.602;2022-10-31T03:52:40;27.53;;;21.70;;
14698;SDS011;7439;50.804;4.602;2022-10-31T03:55:13;23.77;;;19.90;;
14698;SDS011;7439;50.804;4.602;2022-10-31T03:57:45;20.63;;;18.53;;
14698;SDS011;7439;50.804;4.602;2022-10-31T04:00:17;23.57;;;19.30;;
14698;SDS011;7439;50.804;4.602;2022-10-31T04:02:46;28.53;;;20.73;;
14698;SDS011;7439;50.804;4.602;2022-10-31T04:05:19;27.63;;;20.73;;
14698;SDS011;7439;50.804;4.602;2022-10-31T04:07:49;22.40;;;19.67;;
14698;SDS011;7439;50.804;4.602;2022-10-31T04:10:19;27.30;;;21.10;;
14698;SDS011;7439;50.804;4.602;2022-10-31T04:12:49;28.53;;;19.67;;
14698;SDS011;7439;50.804;4.602;2022-10-31T04:15:21;28.43;;;20.27;;
14698;SDS011;7439;50.804;4.602;2022-10-31T04:17:50;26.37;;;18.97;;
14698;SDS011;7439;50.804;4.602;2022-10-31T04:20:28;22.70;;;18.50;;
14698;SDS011;7439;50.804;4.602;2022-10-31T04:22:56;24.97;;;18.03;;
14698;SDS011;7439;50.804;4.602;2022-10-31T04:25:23;21.70;;;18.43;;
14698;SDS011;7439;50.804;4.602;2022-10-31T04:27:50;23.37;;;19.07;;
14698;SDS011;7439;50.804;4.602;2022-10-31T04:30:17;25.43;;;21.20;;
14698;SDS011;7439;50.804;4.602;2022-10-31T04:32:44;30.10;;;20.53;;
14698;SDS011;7439;50.804;4.602;2022-10-31T04:35:11;22.77;;;19.80;;
14698;SDS011;7439;50.804;4.602;2022-10-31T04:37:40;28.63;;;21.30;;
14698;SDS011;7439;50.804;4.602;2022-10-31T04:40:08;23.53;;;20.00;;
14698;SDS011;7439;50.804;4.602;2022-10-31T04:42:36;27.33;;;19.77;;
14698;SDS011;7439;50.804;4.602;2022-10-31T04:45:04;28.03;;;20.80;;
14698;SDS011;7439;50.804;4.602;2022-10-31T04:47:32;28.97;;;19.90;;
14698;SDS011;7439;50.804;4.602;2022-10-31T04:49:59;23.67;;;19.47;;
14698;SDS011;7439;50.804;4.602;2022-10-31T04:52:26;24.83;;;19.60;;
14698;SDS011;7439;50.804;4.602;2022-10-31T04:54:55;30.57;;;19.60;;
14698;SDS011;7439;50.804;4.602;2022-10-31T04:57:22;28.53;;;20.43;;
14698;SDS011;7439;50.804;4.602;2022-10-31T04:59:49;28.87;;;20.47;;
14698;SDS011;7439;50.804;4.602;2022-10-31T05:02:16;27.53;;;19.30;;
14698;SDS011;7439;50.804;4.602;2022-10-31T05:04:43;25.97;;;19.90;;
14698;SDS011;7439;50.804;4.602;2022-10-31T05:07:10;25.10;;;19.53;;
14698;SDS011;7439;50.804;4.602;2022-10-31T05:09:38;21.77;;;17.90;;
14698;SDS011;7439;50.804;4.602;2022-10-31T05:12:06;23.73;;;18.63;;
14698;SDS011;7439;50.804;4.602;2022-10-31T05:14:33;26.80;;;19.47;;
14698;SDS011;7439;50.804;4.602;2022-10-31T05:17:00;24.57;;;19.27;;
14698;SDS011;7439;50.804;4.602;2022-10-31T05:19:27;29.33;;;19.40;;
14698;SDS011;7439;50.804;4.602;2022-10-31T05:21:54;24.20;;;19.60;;
14698;SDS011;7439;50.804;4.602;2022-10-31T05:24:21;22.03;;;19.03;;
14698;SDS011;7439;50.804;4.602;2022-10-31T05:26:49;21.30;;;19.03;;
14698;SDS011;7439;50.804;4.602;2022-10-31T05:29:17;20.53;;;18.30;;
14698;SDS011;7439;50.804;4.602;2022-10-31T05:31:44;23.03;;;18.80;;
14698;SDS011;7439;50.804;4.602;2022-10-31T05:34:11;22.33;;;19.67;;
14698;SDS011;7439;50.804;4.602;2022-10-31T05:36:38;23.43;;;18.60;;
14698;SDS011;7439;50.804;4.602;2022-10-31T05:39:06;22.33;;;18.10;;
14698;SDS011;7439;50.804;4.602;2022-10-31T05:41:33;27.57;;;22.10;;
14698;SDS011;7439;50.804;4.602;2022-10-31T05:44:00;31.80;;;23.97;;
14698;SDS011;7439;50.804;4.602;2022-10-31T05:46:28;28.40;;;21.17;;
14698;SDS011;7439;50.804;4.602;2022-10-31T05:48:55;22.73;;;20.33;;
14698;SDS011;7439;50.804;4.602;2022-10-31T05:51:22;21.97;;;17.77;;
14698;SDS011;7439;50.804;4.602;2022-10-31T05:53:50;22.73;;;18.30;;
14698;SDS011;7439;50.804;4.602;2022-10-31T05:56:17;21.67;;;16.13;;
14698;SDS011;7439;50.804;4.602;2022-10-31T05:58:44;25.20;;;19.23;;
14698;SDS011;7439;50.804;4.602;2022-10-31T06:01:11;28.97;;;18.73;;
14698;SDS011;7439;50.804;4.602;2022-10-31T06:03:39;23.90;;;19.67;;
14698;SDS011;7439;50.804;4.602;2022-10-31T06:06:07;24.23;;;19.80;;
14698;SDS011;7439;50.804;4.602;2022-10-31T06:08:34;21.53;;;18.80;;
14698;SDS011;7439;50.804;4.602;2022-10-31T06:11:01;25.13;;;17.77;;
14698;SDS011;7439;50.804;4.602;2022-10-31T06:13:28;18.80;;;16.50;;
14698;SDS011;7439;50.804;4.602;2022-10-31T06:15:55;24.40;;;17.33;;
14698;SDS011;7439;50.804;4.602;2022-10-31T06:18:22;19.77;;;17.10;;
14698;SDS011;7439;50.804;4.602;2022-10-31T06:20:51;21.07;;;17.60;;
14698;SDS011;7439;50.804;4.602;2022-10-31T06:23:18;21.13;;;17.00;;
14698;SDS011;7439;50.804;4.602;2022-10-31T06:25:48;21.10;;;17.63;;
14698;SDS011;7439;50.804;4.602;2022-10-31T06:28:15;20.90;;;18.70;;
14698;SDS011;7439;50.804;4.602;2022-10-31T06:30:42;21.97;;;17.53;;
14698;SDS011;7439;50.804;4.602;2022-10-31T06:33:09;18.93;;;16.87;;
14698;SDS011;7439;50.804;4.602;2022-10-31T06:35:36;24.43;;;19.47;;
14698;SDS011;7439;50.804;4.602;2022-10-31T06:38:05;29.97;;;20.13;;
14698;SDS011;7439;50.804;4.602;2022-10-31T06:40:32;23.53;;;19.83;;
14698;SDS011;7439;50.804;4.602;2022-10-31T06:42:59;29.87;;;25.47;;
14698;SDS011;7439;50.804;4.602;2022-10-31T06:45:27;30.83;;;25.83;;
14698;SDS011;7439;50.804;4.602;2022-10-31T06:47:54;26.57;;;23.10;;
14698;SDS011;7439;50.804;4.602;2022-10-31T06:50:23;28.23;;;20.47;;
14698;SDS011;7439;50.804;4.602;2022-10-31T06:52:50;24.40;;;21.53;;
14698;SDS011;7439;50.804;4.602;2022-10-31T06:55:19;36.03;;;27.07;;
14698;SDS011;7439;50.804;4.602;2022-10-31T06:57:50;31.40;;;25.30;;
14698;SDS011;7439;50.804;4.602;2022-10-31T07:00:18;32.83;;;23.77;;
14698;SDS011;7439;50.804;4.602;2022-10-31T07:02:52;30.63;;;21.13;;
14698;SDS011;7439;50.804;4.602;2022-10-31T07:05:20;30.70;;;22.43;;
14698;SDS011;7439;50.804;4.602;2022-10-31T07:07:47;28.30;;;23.13;;
14698;SDS011;7439;50.804;4.602;2022-10-31T07:10:19;30.27;;;23.00;;
14698;SDS011;7439;50.804;4.602;2022-10-31T07:12:46;20.73;;;16.83;;
14698;SDS011;7439;50.804;4.602;2022-10-31T07:15:13;25.27;;;22.13;;
14698;SDS011;7439;50.804;4.602;2022-10-31T07:17:40;24.97;;;21.37;;
14698;SDS011;7439;50.804;4.602;2022-10-31T07:20:08;24.90;;;22.20;;
14698;SDS011;7439;50.804;4.602;2022-10-31T07:22:35;28.70;;;25.67;;
14698;SDS011;7439;50.804;4.602;2022-10-31T07:25:03;33.73;;;28.00;;
14698;SDS011;7439;50.804;4.602;2022-10-31T07:27:36;26.17;;;23.67;;
14698;SDS011;7439;50.804;4.602;2022-10-31T07:30:03;26.93;;;24.13;;
14698;SDS011;7439;50.804;4.602;2022-10-31T07:32:38;28.67;;;26.07;;
14698;SDS011;7439;50.804;4.602;2022-10-31T07:35:05;29.07;;;26.20;;
14698;SDS011;7439;50.804;4.602;2022-10-31T07:37:33;28.33;;;25.30;;
14698;SDS011;7439;50.804;4.602;2022-10-31T07:40:00;32.70;;;29.27;;
14698;SDS011;7439;50.804;4.602;2022-10-31T07:42:28;36.80;;;31.63;;
14698;SDS011;7439;50.804;4.602;2022-10-31T07:44:56;35.40;;;31.23;;
14698;SDS011;7439;50.804;4.602;2022-10-31T07:47:24;37.60;;;33.80;;
14698;SDS011;7439;50.804;4.602;2022-10-31T07:49:51;39.77;;;35.77;;
14698;SDS011;7439;50.804;4.602;2022-10-31T07:52:18;45.87;;;38.30;;
14698;SDS011;7439;50.804;4.602;2022-10-31T07:54:45;34.30;;;31.53;;
14698;SDS011;7439;50.804;4.602;2022-10-31T07:57:12;34.97;;;31.97;;
14698;SDS011;7439;50.804;4.602;2022-10-31T07:59:39;35.33;;;32.43;;
14698;SDS011;7439;50.804;4.602;2022-10-31T08:02:08;38.40;;;34.93;;
14698;SDS011;7439;50.804;4.602;2022-10-31T08:04:35;36.47;;;33.37;;
14698;SDS011;7439;50.804;4.602;2022-10-31T08:07:02;38.50;;;34.93;;
14698;SDS011;7439;50.804;4.602;2022-10-31T08:09:29;37.10;;;34.20;;
14698;SDS011;7439;50.804;4.602;2022-10-31T08:11:57;38.27;;;35.37;;
14698;SDS011;7439;50.804;4.602;2022-10-31T08:14:24;37.40;;;34.73;;
14698;SDS011;7439;50.804;4.602;2022-10-31T08:16:52;41.30;;;38.00;;
14698;SDS011;7439;50.804;4.602;2022-10-31T08:19:20;39.33;;;36.33;;
14698;SDS011;7439;50.804;4.602;2022-10-31T08:21:49;41.30;;;38.40;;
14698;SDS011;7439;50.804;4.602;2022-10-31T08:24:17;43.23;;;40.37;;
14698;SDS011;7439;50.804;4.602;2022-10-31T08:26:44;45.47;;;42.10;;
14698;SDS011;7439;50.804;4.602;2022-10-31T08:29:11;42.30;;;39.67;;
14698;SDS011;7439;50.804;4.602;2022-10-31T08:31:39;45.47;;;41.93;;
14698;SDS011;7439;50.804;4.602;2022-10-31T08:34:06;43.30;;;40.40;;
14698;SDS011;7439;50.804;4.602;2022-10-31T08:36:35;45.17;;;42.43;;
14698;SDS011;7439;50.804;4.602;2022-10-31T08:39:02;47.37;;;44.27;;
14698;SDS011;7439;50.804;4.602;2022-10-31T08:41:29;45.80;;;42.67;;
14698;SDS011;7439;50.804;4.602;2022-10-31T08:43:57;49.50;;;45.87;;
14698;SDS011;7439;50.804;4.602;2022-10-31T08:46:24;51.73;;;48.23;;
14698;SDS011;7439;50.804;4.602;2022-10-31T08:48:51;56.67;;;53.07;;
14698;SDS011;7439;50.804;4.602;2022-10-31T08:51:18;54.03;;;50.70;;
14698;SDS011;7439;50.804;4.602;2022-10-31T08:53:47;54.70;;;51.30;;
14698;SDS011;7439;50.804;4.602;2022-10-31T08:56:14;54.67;;;51.30;;
14698;SDS011;7439;50.804;4.602;2022-10-31T08:58:41;56.13;;;52.30;;
14698;SDS011;7439;50.804;4.602;2022-10-31T09:01:08;56.17;;;52.90;;
14698;SDS011;7439;50.804;4.602;2022-10-31T09:03:35;54.70;;;51.60;;
14698;SDS011;7439;50.804;4.602;2022-10-31T09:06:02;60.40;;;56.73;;
14698;SDS011;7439;50.804;4.602;2022-10-31T09:08:33;62.97;;;59.53;;
14698;SDS011;7439;50.804;4.602;2022-10-31T09:11:02;60.10;;;56.80;;
14698;SDS011;7439;50.804;4.602;2022-10-31T09:13:31;62.63;;;59.03;;
14698;SDS011;7439;50.804;4.602;2022-10-31T09:15:59;63.23;;;59.43;;
14698;SDS011;7439;50.804;4.602;2022-10-31T09:18:26;57.77;;;54.53;;
14698;SDS011;7439;50.804;4.602;2022-10-31T09:20:53;60.70;;;56.57;;
14698;SDS011;7439;50.804;4.602;2022-10-31T09:23:23;62.67;;;58.47;;
14698;SDS011;7439;50.804;4.602;2022-10-31T09:25:51;67.77;;;63.67;;
14698;SDS011;7439;50.804;4.602;2022-10-31T09:28:21;63.53;;;59.30;;
14698;SDS011;7439;50.804;4.602;2022-10-31T09:30:50;62.97;;;59.07;;
14698;SDS011;7439;50.804;4.602;2022-10-31T09:33:18;67.13;;;63.00;;
14698;SDS011;7439;50.804;4.602;2022-10-31T09:35:46;69.07;;;64.87;;
14698;SDS011;7439;50.804;4.602;2022-10-31T09:38:14;67.43;;;63.73;;
14698;SDS011;7439;50.804;4.602;2022-10-31T09:40:44;66.10;;;62.50;;
14698;SDS011;7439;50.804;4.602;2022-10-31T09:43:15;64.73;;;61.07;;
14698;SDS011;7439;50.804;4.602;2022-10-31T09:45:53;58.07;;;54.70;;
14698;SDS011;7439;50.804;4.602;2022-10-31T09:48:38;55.90;;;52.47;;
14698;SDS011;7439;50.804;4.602;2022-10-31T09:51:19;60.87;;;57.37;;
14698;SDS011;7439;50.804;4.602;2022-10-31T09:53:50;74.77;;;70.77;;
14698;SDS011;7439;50.804;4.602;2022-10-31T09:56:23;80.67;;;76.47;;
14698;SDS011;7439;50.804;4.602;2022-10-31T09:58:52;93.73;;;88.83;;
14698;SDS011;7439;50.804;4.602;2022-10-31T10:01:30;92.97;;;88.37;;
14698;SDS011;7439;50.804;4.602;2022-10-31T10:04:05;100.63;;;95.73;;
14698;SDS011;7439;50.804;4.602;2022-10-31T10:06:54;109.53;;;104.53;;
14698;SDS011;7439;50.804;4.602;2022-10-31T10:09:25;109.73;;;104.50;;
14698;SDS011;7439;50.804;4.602;2022-10-31T10:11:55;104.33;;;99.03;;
14698;SDS011;7439;50.804;4.602;2022-10-31T10:14:41;121.53;;;115.53;;
14698;SDS011;7439;50.804;4.602;2022-10-31T10:17:21;106.13;;;100.50;;
14698;SDS011;7439;50.804;4.602;2022-10-31T10:22:52;80.13;;;75.27;;
14698;SDS011;7439;50.804;4.602;2022-10-31T10:25:28;77.23;;;73.07;;
14698;SDS011;7439;50.804;4.602;2022-10-31T10:28:06;66.47;;;62.70;;
14698;SDS011;7439;50.804;4.602;2022-10-31T10:30:40;66.93;;;63.00;;
14698;SDS011;7439;50.804;4.602;2022-10-31T10:33:12;68.33;;;64.57;;
14698;SDS011;7439;50.804;4.602;2022-10-31T10:35:46;66.67;;;62.70;;
14698;SDS011;7439;50.804;4.602;2022-10-31T10:38:16;72.90;;;68.83;;
14698;SDS011;7439;50.804;4.602;2022-10-31T10:40:50;63.43;;;60.00;;
14698;SDS011;7439;50.804;4.602;2022-10-31T10:43:23;79.57;;;75.50;;
14698;SDS011;7439;50.804;4.602;2022-10-31T10:45:54;83.43;;;79.53;;
14698;SDS011;7439;50.804;4.602;2022-10-31T10:48:50;91.77;;;87.47;;
14698;SDS011;7439;50.804;4.602;2022-10-31T10:51:23;78.13;;;74.03;;
14698;SDS011;7439;50.804;4.602;2022-10-31T10:54:09;82.30;;;78.50;;
14698;SDS011;7439;50.804;4.602;2022-10-31T10:57:01;51.77;;;49.03;;
14698;SDS011;7439;50.804;4.602;2022-10-31T10:59:36;59.63;;;56.43;;
14698;SDS011;7439;50.804;4.602;2022-10-31T11:02:08;65.80;;;62.40;;
14698;SDS011;7439;50.804;4.602;2022-10-31T11:04:45;58.33;;;55.37;;
14698;SDS011;7439;50.804;4.602;2022-10-31T11:07:17;77.03;;;73.57;;
14698;SDS011;7439;50.804;4.602;2022-10-31T11:09:44;86.87;;;82.93;;
14698;SDS011;7439;50.804;4.602;2022-10-31T11:12:16;68.33;;;64.90;;
14698;SDS011;7439;50.804;4.602;2022-10-31T11:14:48;68.37;;;64.83;;
14698;SDS011;7439;50.804;4.602;2022-10-31T11:17:19;57.10;;;54.10;;
14698;SDS011;7439;50.804;4.602;2022-10-31T11:20:03;45.43;;;42.87;;
14698;SDS011;7439;50.804;4.602;2022-10-31T11:23:00;46.17;;;43.43;;
14698;SDS011;7439;50.804;4.602;2022-10-31T11:25:28;44.43;;;41.97;;
14698;SDS011;7439;50.804;4.602;2022-10-31T11:27:59;35.23;;;33.00;;
14698;SDS011;7439;50.804;4.602;2022-10-31T11:30:26;31.07;;;28.67;;
14698;SDS011;7439;50.804;4.602;2022-10-31T11:32:54;28.13;;;26.20;;
14698;SDS011;7439;50.804;4.602;2022-10-31T11:35:24;33.03;;;27.17;;
14698;SDS011;7439;50.804;4.602;2022-10-31T11:37:52;25.40;;;23.50;;
14698;SDS011;7439;50.804;4.602;2022-10-31T11:40:24;15.67;;;14.10;;
14698;SDS011;7439;50.804;4.602;2022-10-31T11:42:53;14.70;;;11.77;;
14698;SDS011;7439;50.804;4.602;2022-10-31T11:45:28;10.17;;;8.23;;
14698;SDS011;7439;50.804;4.602;2022-10-31T11:47:57;9.93;;;7.67;;
14698;SDS011;7439;50.804;4.602;2022-10-31T11:50:29;9.30;;;6.40;;
14698;SDS011;7439;50.804;4.602;2022-10-31T11:53:00;8.70;;;6.47;;
14698;SDS011;7439;50.804;4.602;2022-10-31T11:55:32;10.90;;;7.17;;
14698;SDS011;7439;50.804;4.602;2022-10-31T11:58:02;8.67;;;6.70;;
14698;SDS011;7439;50.804;4.602;2022-10-31T12:00:30;15.53;;;7.43;;
14698;SDS011;7439;50.804;4.602;2022-10-31T12:03:11;12.67;;;6.77;;
14698;SDS011;7439;50.804;4.602;2022-10-31T12:05:56;11.43;;;6.27;;
14698;SDS011;7439;50.804;4.602;2022-10-31T12:08:29;12.10;;;7.23;;
14698;SDS011;7439;50.804;4.602;2022-10-31T12:10:58;11.77;;;5.37;;
14698;SDS011;7439;50.804;4.602;2022-10-31T12:13:33;12.40;;;6.93;;
14698;SDS011;7439;50.804;4.602;2022-10-31T12:16:05;10.87;;;5.77;;
14698;SDS011;7439;50.804;4.602;2022-10-31T12:18:49;11.13;;;5.57;;
14698;SDS011;7439;50.804;4.602;2022-10-31T12:24:18;11.37;;;5.93;;
14698;SDS011;7439;50.804;4.602;2022-10-31T12:26:58;12.17;;;5.13;;
14698;SDS011;7439;50.804;4.602;2022-10-31T12:29:49;7.23;;;5.93;;
14698;SDS011;7439;50.804;4.602;2022-10-31T12:32:29;12.13;;;6.57;;
14698;SDS011;7439;50.804;4.602;2022-10-31T12:35:15;8.30;;;5.13;;
14698;SDS011;7439;50.804;4.602;2022-10-31T12:37:57;36.73;;;5.80;;
14698;SDS011;7439;50.804;4.602;2022-10-31T12:40:43;11.50;;;5.33;;
14698;SDS011;7439;50.804;4.602;2022-10-31T12:43:26;10.80;;;4.83;;
14698;SDS011;7439;50.804;4.602;2022-10-31T12:46:01;9.90;;;5.97;;
14698;SDS011;7439;50.804;4.602;2022-10-31T12:51:27;13.17;;;5.23;;
14698;SDS011;7439;50.804;4.602;2022-10-31T12:54:10;11.20;;;5.93;;
14698;SDS011;7439;50.804;4.602;2022-10-31T12:56:53;15.17;;;5.73;;
14698;SDS011;7439;50.804;4.602;2022-10-31T12:59:28;9.17;;;5.80;;
14698;SDS011;7439;50.804;4.602;2022-10-31T13:02:01;10.27;;;5.50;;
14698;SDS011;7439;50.804;4.602;2022-10-31T13:04:38;9.70;;;5.83;;
14698;SDS011;7439;50.804;4.602;2022-10-31T13:07:11;10.57;;;5.20;;
14698;SDS011;7439;50.804;4.602;2022-10-31T13:09:45;12.27;;;5.13;;
14698;SDS011;7439;50.804;4.602;2022-10-31T13:12:17;12.97;;;5.20;;
14698;SDS011;7439;50.804;4.602;2022-10-31T13:14:48;7.27;;;4.70;;
14698;SDS011;7439;50.804;4.602;2022-10-31T13:17:20;5.00;;;4.07;;
14698;SDS011;7439;50.804;4.602;2022-10-31T13:19:53;10.80;;;4.70;;
14698;SDS011;7439;50.804;4.602;2022-10-31T13:22:24;8.67;;;4.70;;
14698;SDS011;7439;50.804;4.602;2022-10-31T13:24:58;9.37;;;4.43;;
14698;SDS011;7439;50.804;4.602;2022-10-31T13:27:30;8.83;;;4.30;;
14698;SDS011;7439;50.804;4.602;2022-10-31T13:30:14;9.60;;;4.40;;
14698;SDS011;7439;50.804;4.602;2022-10-31T13:32:43;8.23;;;4.47;;
14698;SDS011;7439;50.804;4.602;2022-10-31T13:35:14;12.03;;;5.10;;
14698;SDS011;7439;50.804;4.602;2022-10-31T13:37:48;6.60;;;3.57;;
14698;SDS011;7439;50.804;4.602;2022-10-31T13:40:22;11.00;;;3.47;;
14698;SDS011;7439;50.804;4.602;2022-10-31T13:42:59;7.50;;;3.83;;
14698;SDS011;7439;50.804;4.602;2022-10-31T13:45:32;8.50;;;3.33;;
14698;SDS011;7439;50.804;4.602;2022-10-31T13:48:00;9.97;;;4.00;;
14698;SDS011;7439;50.804;4.602;2022-10-31T13:50:54;14.07;;;4.70;;
14698;SDS011;7439;50.804;4.602;2022-10-31T13:53:34;10.67;;;4.13;;
14698;SDS011;7439;50.804;4.602;2022-10-31T13:58:59;9.50;;;4.17;;
14698;SDS011;7439;50.804;4.602;2022-10-31T14:01:29;7.97;;;4.43;;
14698;SDS011;7439;50.804;4.602;2022-10-31T14:03:59;6.27;;;4.20;;
14698;SDS011;7439;50.804;4.602;2022-10-31T14:06:40;11.83;;;4.90;;
14698;SDS011;7439;50.804;4.602;2022-10-31T14:09:20;11.70;;;4.97;;
14698;SDS011;7439;50.804;4.602;2022-10-31T14:11:53;11.67;;;5.07;;
14698;SDS011;7439;50.804;4.602;2022-10-31T14:14:22;20.77;;;6.87;;
14698;SDS011;7439;50.804;4.602;2022-10-31T14:16:55;8.40;;;5.13;;
14698;SDS011;7439;50.804;4.602;2022-10-31T14:19:24;14.07;;;5.50;;
14698;SDS011;7439;50.804;4.602;2022-10-31T14:21:53;12.57;;;6.10;;
14698;SDS011;7439;50.804;4.602;2022-10-31T14:24:33;12.70;;;5.40;;
14698;SDS011;7439;50.804;4.602;2022-10-31T14:27:04;13.40;;;5.93;;
14698;SDS011;7439;50.804;4.602;2022-10-31T14:29:47;12.90;;;6.03;;
14698;SDS011;7439;50.804;4.602;2022-10-31T14:32:18;13.47;;;5.47;;
14698;SDS011;7439;50.804;4.602;2022-10-31T14:34:52;12.40;;;7.20;;
14698;SDS011;7439;50.804;4.602;2022-10-31T14:37:37;13.47;;;5.77;;
14698;SDS011;7439;50.804;4.602;2022-10-31T14:40:25;10.43;;;6.23;;
14698;SDS011;7439;50.804;4.602;2022-10-31T14:46:15;13.30;;;6.17;;
14698;SDS011;7439;50.804;4.602;2022-10-31T14:51:40;10.50;;;5.57;;
14698;SDS011;7439;50.804;4.602;2022-10-31T14:54:11;15.43;;;6.23;;
14698;SDS011;7439;50.804;4.602;2022-10-31T14:56:43;11.53;;;5.93;;
14698;SDS011;7439;50.804;4.602;2022-10-31T14:59:15;20.43;;;6.00;;
14698;SDS011;7439;50.804;4.602;2022-10-31T15:01:52;11.83;;;5.83;;
14698;SDS011;7439;50.804;4.602;2022-10-31T15:04:23;9.97;;;5.50;;
14698;SDS011;7439;50.804;4.602;2022-10-31T15:06:54;8.80;;;6.27;;
14698;SDS011;7439;50.804;4.602;2022-10-31T15:09:27;13.73;;;6.53;;
14698;SDS011;7439;50.804;4.602;2022-10-31T15:11:57;10.37;;;7.80;;
14698;SDS011;7439;50.804;4.602;2022-10-31T15:14:25;13.00;;;8.17;;
14698;SDS011;7439;50.804;4.602;2022-10-31T15:16:56;14.47;;;7.50;;
14698;SDS011;7439;50.804;4.602;2022-10-31T15:19:26;14.10;;;7.30;;
14698;SDS011;7439;50.804;4.602;2022-10-31T15:21:55;13.47;;;7.33;;
14698;SDS011;7439;50.804;4.602;2022-10-31T15:24:24;12.73;;;7.23;;
14698;SDS011;7439;50.804;4.602;2022-10-31T15:26:56;12.47;;;8.80;;
14698;SDS011;7439;50.804;4.602;2022-10-31T15:29:24;8.87;;;7.00;;